Time;durP1;ratioP1;P1;durP2;ratioP2;P2;SDS_P1;SDS_P2;PMS_P1;PMS_P2;Temp;Humidity;BMP_temperature;BMP_pressure;BME280_temperature;BME280_humidity;BME280_pressure;Samples;Min_cycle;Max_cycle;Signal;HPM_P1;HPM_P2
2022/12/28 00:01:24;;;;;;;14.10;4.20;;;4.40;99.90;;;;;;5046957;28;20087;-46
2022/12/28 00:03:51;;;;;;;14.23;4.63;;;4.40;99.90;;;;;;5047329;28;20040;-48
2022/12/28 00:06:18;;;;;;;17.33;5.07;;;4.30;99.90;;;;;;5047076;28;20510;-46
2022/12/28 00:08:44;;;;;;;13.90;4.85;;;4.20;99.90;;;;;;5047233;28;20399;-46
2022/12/28 00:11:16;;;;;;;14.35;4.47;;;5.00;99.90;;;;;;5046789;28;20487;-45
2022/12/28 00:13:42;;;;;;;13.55;5.05;;;4.40;99.90;;;;;;5046985;28;20045;-46
2022/12/28 00:16:12;;;;;;;10.13;5.30;;;4.10;99.90;;;;;;5047502;28;20048;-44
2022/12/28 00:18:38;;;;;;;12.70;5.53;;;4.30;99.90;;;;;;5046532;28;20041;-45
2022/12/28 00:21:04;;;;;;;12.50;5.88;;;4.20;99.90;;;;;;5046842;28;20481;-48
2022/12/28 00:23:31;;;;;;;12.30;5.57;;;4.40;99.90;;;;;;5047112;28;20040;-46
2022/12/28 00:26:05;;;;;;;16.75;5.40;;;4.30;99.90;;;;;;5046985;28;20037;-46
2022/12/28 00:28:31;;;;;;;9.65;5.07;;;4.40;99.90;;;;;;5047329;28;20044;-45
2022/12/28 00:30:57;;;;;;;10.82;5.25;;;4.40;99.90;;;;;;5046918;28;20048;-44
2022/12/28 00:33:23;;;;;;;13.00;5.25;;;4.20;99.90;;;;;;5046898;28;20037;-46
2022/12/28 00:35:59;;;;;;;11.55;4.78;;;4.40;99.90;;;;;;5046508;28;20098;-45
2022/12/28 00:38:25;;;;;;;10.13;5.35;;;4.40;99.90;;;;;;5047211;28;20055;-45
2022/12/28 00:40:51;;;;;;;16.52;6.10;;;4.20;99.90;;;;;;5046832;28;20040;-45
2022/12/28 00:43:17;;;;;;;15.65;6.35;;;4.40;99.90;;;;;;5046941;28;20505;-45
2022/12/28 00:45:47;;;;;;;13.27;5.68;;;4.20;99.90;;;;;;5046925;28;20131;-47
2022/12/28 00:48:13;;;;;;;15.90;5.60;;;4.40;99.90;;;;;;5047634;28;20123;-45
2022/12/28 00:50:40;;;;;;;13.55;5.70;;;4.40;99.90;;;;;;5046152;28;20051;-46
2022/12/28 00:53:06;;;;;;;11.50;6.30;;;4.40;99.90;;;;;;5047288;28;20438;-45
2022/12/28 00:55:33;;;;;;;13.38;5.88;;;4.20;99.90;;;;;;5046874;28;20132;-47
2022/12/28 00:58:00;;;;;;;24.23;9.70;;;4.40;99.90;;;;;;5046963;28;20819;-45
2022/12/28 01:00:26;;;;;;;15.98;6.30;;;4.30;99.90;;;;;;5047014;28;20056;-45
2022/12/28 01:02:52;;;;;;;14.85;6.30;;;4.30;99.90;;;;;;5046927;28;20040;-45
2022/12/28 01:05:17;;;;;;;14.35;7.05;;;4.30;99.90;;;;;;5047185;28;20541;-46
2022/12/28 01:07:43;;;;;;;16.25;7.80;;;4.40;99.90;;;;;;5047048;28;20049;-46
2022/12/28 01:10:09;;;;;;;16.45;6.55;;;4.50;99.90;;;;;;5047015;28;20048;-48
2022/12/28 01:12:35;;;;;;;14.80;6.93;;;4.40;99.90;;;;;;5046832;28;20154;-45
2022/12/28 01:15:05;;;;;;;11.25;6.30;;;4.40;99.90;;;;;;5047142;28;20849;-45
2022/12/28 01:17:31;;;;;;;13.85;6.43;;;4.40;99.90;;;;;;5047073;28;20390;-46
2022/12/28 01:19:56;;;;;;;16.55;7.68;;;4.40;99.90;;;;;;5046709;28;20048;-45
2022/12/28 01:22:22;;;;;;;17.52;6.70;;;4.90;99.90;;;;;;5046917;28;20570;-45
2022/12/28 01:24:48;;;;;;;23.48;7.10;;;4.40;99.90;;;;;;5046724;28;20426;-45
2022/12/28 01:27:14;;;;;;;16.23;7.68;;;4.50;99.90;;;;;;5046855;28;20041;-47
2022/12/28 01:29:39;;;;;;;17.15;7.55;;;4.30;99.90;;;;;;5046450;28;20051;-46
2022/12/28 01:32:05;;;;;;;14.48;6.90;;;4.50;99.90;;;;;;5047034;28;20088;-45
2022/12/28 01:34:31;;;;;;;16.17;6.82;;;4.50;99.90;;;;;;5046675;28;20045;-47
2022/12/28 01:36:56;;;;;;;15.35;7.40;;;4.50;99.90;;;;;;5047084;28;20045;-45
2022/12/28 01:39:22;;;;;;;14.25;6.50;;;4.50;99.90;;;;;;5046898;28;20045;-45
2022/12/28 01:41:48;;;;;;;13.00;7.45;;;5.30;99.90;;;;;;5046773;28;20093;-47
2022/12/28 01:44:13;;;;;;;14.15;7.60;;;4.30;99.90;;;;;;5046815;28;20105;-44
2022/12/28 01:47:00;;;;;;;15.02;6.78;;;5.50;99.90;;;;;;5046626;28;20037;-44
2022/12/28 01:49:34;;;;;;;17.45;7.47;;;4.60;99.90;;;;;;5046613;28;20053;-46
2022/12/28 01:52:21;;;;;;;17.80;8.65;;;4.60;99.90;;;;;;5046458;28;20037;-46
2022/12/28 01:54:57;;;;;;;19.70;8.95;;;4.60;99.90;;;;;;5046112;28;20080;-45
2022/12/28 01:57:28;;;;;;;18.38;7.72;;;4.60;99.90;;;;;;5046308;28;20499;-49
2022/12/28 02:00:00;;;;;;;13.30;7.63;;;4.50;99.90;;;;;;5046184;28;20041;-49
2022/12/28 02:02:28;;;;;;;19.40;8.02;;;4.80;99.90;;;;;;5049283;28;20118;-46
2022/12/28 02:04:54;;;;;;;15.70;7.53;;;4.60;99.90;;;;;;5050316;28;20080;-47
2022/12/28 02:07:58;;;;;;;17.17;8.60;;;4.60;99.90;;;;;;5050281;28;20413;-46
2022/12/28 02:10:26;;;;;;;18.40;9.00;;;4.70;99.90;;;;;;5011777;28;20794;-47
2022/12/28 02:12:54;;;;;;;16.67;8.98;;;4.50;99.90;;;;;;5049889;28;20060;-46
2022/12/28 02:15:20;;;;;;;16.88;8.02;;;4.60;99.90;;;;;;5048438;28;20710;-46
2022/12/28 02:17:46;;;;;;;13.55;7.75;;;4.60;99.90;;;;;;5049372;28;20128;-45
2022/12/28 02:20:13;;;;;;;18.92;8.15;;;4.70;99.90;;;;;;5049315;28;20080;-45
2022/12/28 02:23:16;;;;;;;17.55;7.78;;;5.10;99.90;;;;;;5049728;28;20494;-45
2022/12/28 02:26:06;;;;;;;12.10;6.78;;;4.80;99.90;;;;;;5049787;28;20045;-47
2022/12/28 02:28:51;;;;;;;15.32;7.90;;;4.80;99.90;;;;;;5050096;28;20037;-46
2022/12/28 02:31:24;;;;;;;17.45;7.95;;;5.70;99.90;;;;;;5050168;28;20782;-45
2022/12/28 02:34:12;;;;;;;20.38;9.05;;;5.70;99.90;;;;;;5049151;28;20099;-45
2022/12/28 02:36:45;;;;;;;22.75;8.77;;;4.80;99.90;;;;;;5049658;28;20123;-45
2022/12/28 02:39:29;;;;;;;19.00;9.20;;;4.70;99.90;;;;;;5049418;28;20051;-47
2022/12/28 02:41:56;;;;;;;16.08;8.60;;;4.80;99.90;;;;;;5049257;28;20056;-45
2022/12/28 02:50:05;;;;;;;22.77;9.93;;;4.90;99.90;;;;;;5049204;28;20059;-46
2022/12/28 02:53:11;;;;;;;22.25;10.23;;;5.30;99.90;;;;;;5049379;28;20047;-46
2022/12/28 02:56:06;;;;;;;19.35;9.18;;;5.00;99.90;;;;;;5049088;28;20550;-47
2022/12/28 02:58:59;;;;;;;23.20;9.98;;;5.00;99.90;;;;;;5049272;28;20087;-45
2022/12/28 03:01:44;;;;;;;25.00;10.13;;;5.00;99.90;;;;;;5049347;28;20379;-45
2022/12/28 03:04:17;;;;;;;18.52;9.90;;;5.00;99.90;;;;;;5049248;28;20041;-49
2022/12/28 03:10:06;;;;;;;16.08;9.68;;;7.20;99.90;;;;;;5049224;28;20102;-46
2022/12/28 03:12:42;;;;;;;19.17;9.63;;;4.90;99.90;;;;;;5047705;28;20165;-45
2022/12/28 03:15:37;;;;;;;16.98;9.57;;;5.10;99.90;;;;;;5049028;28;20080;-45
2022/12/28 03:32:08;;;;;;;19.05;8.98;;;5.20;99.90;;;;;;5048182;28;20079;-45
2022/12/28 03:34:34;;;;;;;23.65;10.32;;;5.20;99.90;;;;;;5048368;28;20052;-46
2022/12/28 03:37:24;;;;;;;22.60;10.65;;;5.30;99.90;;;;;;5048389;28;20057;-46
2022/12/28 03:40:09;;;;;;;24.20;10.45;;;5.30;99.90;;;;;;5049155;28;20094;-46
2022/12/28 03:45:51;;;;;;;22.40;11.18;;;5.20;99.90;;;;;;5048936;28;20127;-45
2022/12/28 03:48:17;;;;;;;23.08;10.30;;;5.40;99.90;;;;;;5048316;28;20103;-46
2022/12/28 03:50:46;;;;;;;22.23;12.55;;;5.20;99.90;;;;;;5048533;28;20076;-46
2022/12/28 03:53:13;;;;;;;19.17;10.70;;;6.30;99.90;;;;;;5048068;28;20044;-45
2022/12/28 03:55:39;;;;;;;25.15;11.20;;;5.40;99.90;;;;;;5048351;28;20051;-48
2022/12/28 03:58:05;;;;;;;18.80;10.02;;;6.30;99.90;;;;;;5047958;28;20049;-46
2022/12/28 04:00:31;;;;;;;20.02;11.48;;;6.10;99.90;;;;;;5048553;28;20410;-47
2022/12/28 04:02:57;;;;;;;20.02;9.93;;;5.30;99.90;;;;;;5048681;28;20053;-46
2022/12/28 04:05:23;;;;;;;17.17;9.50;;;6.60;99.90;;;;;;5048232;28;20570;-45
2022/12/28 04:07:49;;;;;;;20.30;9.65;;;6.30;99.90;;;;;;5048277;28;20359;-44
2022/12/28 04:10:15;;;;;;;25.52;10.63;;;5.50;99.90;;;;;;5047690;28;20041;-45
2022/12/28 04:12:40;;;;;;;19.30;10.25;;;6.00;99.90;;;;;;5047688;28;20770;-45
2022/12/28 04:15:06;;;;;;;17.67;9.85;;;6.50;99.90;;;;;;5047955;28;20463;-46
2022/12/28 04:17:32;;;;;;;21.60;9.75;;;5.60;99.90;;;;;;5048223;28;20554;-45
2022/12/28 04:19:58;;;;;;;19.08;9.65;;;6.60;99.90;;;;;;5048254;28;20049;-47
2022/12/28 04:22:23;;;;;;;21.42;9.90;;;5.50;99.90;;;;;;5046229;28;20049;-46
2022/12/28 04:24:49;;;;;;;20.27;10.27;;;5.70;99.90;;;;;;5047435;28;20051;-47
2022/12/28 04:27:15;;;;;;;18.75;8.98;;;5.70;99.90;;;;;;5047555;28;20457;-45
2022/12/28 04:29:40;;;;;;;15.40;8.20;;;5.60;99.90;;;;;;5047468;28;20044;-46
2022/12/28 04:32:06;;;;;;;15.68;7.85;;;6.60;99.90;;;;;;5047360;28;20663;-47
2022/12/28 04:34:32;;;;;;;17.67;8.85;;;5.60;99.90;;;;;;5047189;28;20459;-49
2022/12/28 04:36:57;;;;;;;16.30;8.30;;;5.80;99.90;;;;;;5047649;28;20041;-47
2022/12/28 04:39:23;;;;;;;11.55;7.35;;;5.80;99.90;;;;;;5047441;28;20045;-45
2022/12/28 04:41:49;;;;;;;17.58;8.90;;;5.70;99.90;;;;;;5047473;28;20041;-46
2022/12/28 04:44:15;;;;;;;14.05;7.43;;;6.70;99.90;;;;;;5047276;28;20481;-46
2022/12/28 04:46:40;;;;;;;16.45;7.88;;;5.80;99.90;;;;;;5047390;28;20049;-48
2022/12/28 04:49:06;;;;;;;14.52;7.93;;;5.90;99.90;;;;;;5047146;28;20040;-48
2022/12/28 04:51:32;;;;;;;19.98;8.95;;;5.80;99.90;;;;;;5047052;28;20136;-46
2022/12/28 04:53:58;;;;;;;12.60;7.63;;;5.70;99.90;;;;;;5047380;28;20075;-46
2022/12/28 04:56:25;;;;;;;13.40;7.07;;;6.90;99.90;;;;;;5047350;28;20056;-45
2022/12/28 04:58:55;;;;;;;17.38;8.75;;;6.00;99.90;;;;;;5047543;28;20052;-44
2022/12/28 05:01:21;;;;;;;14.32;7.55;;;6.20;99.90;;;;;;5047039;28;20431;-46
2022/12/28 05:03:47;;;;;;;15.30;6.97;;;5.80;99.90;;;;;;5047050;28;20072;-46
2022/12/28 05:06:18;;;;;;;14.85;7.65;;;6.80;99.90;;;;;;5045543;28;20483;-46
2022/12/28 05:08:44;;;;;;;16.80;8.75;;;6.00;99.90;;;;;;5047401;28;20047;-47
2022/12/28 05:11:22;;;;;;;17.30;8.15;;;5.90;99.90;;;;;;5047161;28;20140;-46
2022/12/28 05:13:48;;;;;;;14.60;7.80;;;6.10;99.90;;;;;;5046676;28;20079;-45
2022/12/28 05:16:16;;;;;;;13.82;7.13;;;5.90;99.90;;;;;;5046688;28;20833;-44
2022/12/28 05:18:43;;;;;;;14.85;8.02;;;5.90;99.90;;;;;;5046994;28;20406;-45
2022/12/28 05:21:20;;;;;;;14.70;8.35;;;6.50;99.90;;;;;;5047080;28;20430;-46
2022/12/28 05:23:46;;;;;;;13.73;7.55;;;6.10;99.90;;;;;;5046887;28;20570;-45
2022/12/28 05:26:14;;;;;;;14.70;8.18;;;5.90;99.90;;;;;;5047168;28;20148;-48
2022/12/28 05:28:40;;;;;;;11.93;6.43;;;7.20;99.90;;;;;;5046514;28;20055;-45
2022/12/28 05:31:11;;;;;;;13.75;7.20;;;6.60;99.90;;;;;;5046918;28;20045;-45
2022/12/28 05:33:37;;;;;;;14.27;7.55;;;6.20;99.90;;;;;;5047011;28;20041;-45
2022/12/28 05:36:08;;;;;;;16.80;7.50;;;6.50;99.90;;;;;;5047973;28;20044;-45
2022/12/28 05:38:34;;;;;;;15.50;7.90;;;6.30;99.90;;;;;;5050651;28;20047;-46
2022/12/28 05:41:27;;;;;;;15.07;8.00;;;6.90;99.90;;;;;;5051020;28;20076;-45
2022/12/28 05:43:54;;;;;;;14.02;8.02;;;7.40;99.90;;;;;;5048895;28;20048;-47
2022/12/28 05:46:23;;;;;;;13.90;7.00;;;6.10;99.90;;;;;;5050715;28;20063;-48
2022/12/28 05:48:49;;;;;;;13.50;7.90;;;6.90;99.90;;;;;;5050832;28;20044;-46
2022/12/28 05:51:20;;;;;;;12.65;7.93;;;6.20;99.90;;;;;;5050862;28;20119;-45
2022/12/28 05:53:46;;;;;;;15.93;8.00;;;6.20;99.90;;;;;;5050741;28;20041;-45
2022/12/28 05:56:14;;;;;;;16.90;8.10;;;7.40;99.90;;;;;;5050307;28;20179;-46
2022/12/28 05:58:41;;;;;;;18.70;9.07;;;7.30;99.90;;;;;;5048544;28;20060;-45
2022/12/28 06:01:10;;;;;;;15.68;8.52;;;6.30;99.90;;;;;;5050310;28;20497;-45
2022/12/28 06:03:37;;;;;;;13.98;7.15;;;7.30;99.90;;;;;;5049743;28;20612;-45
2022/12/28 06:06:09;;;;;;;14.25;7.57;;;7.80;99.90;;;;;;5050383;28;20045;-46
2022/12/28 06:08:37;;;;;;;12.82;7.40;;;6.60;99.90;;;;;;5050172;28;20052;-45
2022/12/28 06:11:05;;;;;;;14.77;7.88;;;6.80;99.90;;;;;;5050013;28;20138;-47
2022/12/28 06:13:31;;;;;;;16.25;9.07;;;6.60;99.90;;;;;;5050025;28;20060;-48
2022/12/28 06:15:57;;;;;;;17.70;9.18;;;7.50;99.90;;;;;;5049890;28;20048;-45
2022/12/28 06:18:27;;;;;;;16.20;9.77;;;7.70;99.90;;;;;;5049822;28;20105;-46
2022/12/28 06:20:53;;;;;;;18.20;9.63;;;6.40;99.90;;;;;;5050016;28;20505;-45
2022/12/28 06:23:18;;;;;;;21.77;10.82;;;6.50;99.90;;;;;;5049971;28;20045;-46
2022/12/28 06:25:44;;;;;;;20.73;11.10;;;6.70;99.90;;;;;;5049697;28;20045;-45
2022/12/28 06:28:10;;;;;;;21.00;11.48;;;6.90;99.90;;;;;;5049975;28;20085;-45
2022/12/28 06:30:36;;;;;;;19.20;10.65;;;7.70;99.90;;;;;;5049809;28;20454;-47
2022/12/28 06:33:01;;;;;;;23.50;10.85;;;7.20;99.90;;;;;;5049898;28;20460;-45
2022/12/28 06:35:27;;;;;;;22.30;11.85;;;6.90;99.90;;;;;;5049095;28;20418;-45
2022/12/28 06:37:53;;;;;;;25.52;12.15;;;6.50;99.90;;;;;;5049994;28;20041;-46
2022/12/28 06:40:18;;;;;;;23.15;11.82;;;6.80;99.90;;;;;;5049904;28;20056;-47
2022/12/28 06:42:44;;;;;;;23.48;11.80;;;6.60;99.90;;;;;;5049898;28;20048;-46
2022/12/28 06:45:09;;;;;;;23.77;12.85;;;6.80;99.90;;;;;;5049585;28;20103;-47
2022/12/28 06:47:36;;;;;;;23.50;11.77;;;6.90;99.90;;;;;;5049833;28;20045;-46
2022/12/28 06:50:03;;;;;;;22.27;11.07;;;6.70;99.90;;;;;;5050085;28;20041;-46
2022/12/28 06:52:28;;;;;;;20.80;11.20;;;7.00;99.90;;;;;;5049814;28;20049;-47
2022/12/28 06:54:54;;;;;;;23.70;11.57;;;6.90;99.90;;;;;;5049719;28;20044;-46
2022/12/28 06:57:20;;;;;;;19.83;12.07;;;7.00;99.90;;;;;;5049936;28;20813;-46
2022/12/28 06:59:45;;;;;;;22.15;12.02;;;7.10;99.90;;;;;;5049304;28;20670;-48
2022/12/28 07:02:11;;;;;;;22.38;12.45;;;7.10;99.90;;;;;;5049362;28;20044;-45
2022/12/28 07:04:37;;;;;;;22.67;11.73;;;6.90;99.90;;;;;;5049143;28;20078;-46
2022/12/28 07:07:02;;;;;;;21.17;10.98;;;7.90;99.90;;;;;;5049383;28;20040;-45
2022/12/28 07:09:28;;;;;;;21.33;11.43;;;7.20;99.90;;;;;;5049371;28;20082;-45
2022/12/28 07:11:55;;;;;;;21.50;10.88;;;7.90;99.90;;;;;;5048556;28;20514;-44
2022/12/28 07:14:20;;;;;;;19.75;10.65;;;7.20;99.90;;;;;;5048496;28;20122;-46
2022/12/28 07:16:47;;;;;;;20.15;11.43;;;7.20;99.90;;;;;;5048786;28;20128;-45
2022/12/28 07:19:13;;;;;;;17.13;10.50;;;7.50;99.90;;;;;;5048778;28;20041;-44
2022/12/28 07:21:39;;;;;;;18.38;10.88;;;8.00;99.90;;;;;;5048601;28;20052;-46
2022/12/28 07:24:05;;;;;;;20.52;11.55;;;7.30;99.90;;;;;;5048655;28;20045;-44
2022/12/28 07:26:33;;;;;;;22.42;10.38;;;7.30;99.90;;;;;;5048838;28;20052;-46
2022/12/28 07:29:01;;;;;;;18.92;10.50;;;8.30;99.90;;;;;;5048564;28;20029;-45
2022/12/28 07:31:33;;;;;;;21.75;11.30;;;7.40;99.90;;;;;;5048478;28;20041;-45
2022/12/28 07:33:59;;;;;;;23.27;13.20;;;7.40;99.90;;;;;;5047793;28;20041;-45
2022/12/28 07:36:28;;;;;;;19.30;10.25;;;7.40;99.90;;;;;;5048388;28;20084;-48
2022/12/28 07:38:54;;;;;;;29.77;12.23;;;7.40;99.90;;;;;;5048167;28;20049;-47
2022/12/28 07:41:26;;;;;;;24.48;12.45;;;7.80;99.90;;;;;;5048602;28;20053;-46
2022/12/28 07:43:52;;;;;;;;;;;8.50;99.90;;;;;;5048578;28;20048;-46
2022/12/28 07:46:24;;;;;;;23.77;13.32;;;7.60;99.90;;;;;;5048142;28;20401;-47
2022/12/28 07:48:50;;;;;;;20.30;12.93;;;8.90;99.90;;;;;;5048194;28;20052;-45
2022/12/28 07:51:25;;;;;;;24.98;14.18;;;8.00;99.90;;;;;;5048716;28;20271;-46
2022/12/28 07:53:52;;;;;;;26.90;14.27;;;7.70;99.90;;;;;;5048292;28;20048;-46
2022/12/28 07:56:19;;;;;;;29.08;16.02;;;7.70;99.90;;;;;;5048327;28;20129;-46
2022/12/28 07:58:52;;;;;;;25.70;14.80;;;8.40;99.90;;;;;;5047240;28;20578;-46
2022/12/28 08:01:20;;;;;;;24.30;14.40;;;7.70;99.90;;;;;;5048100;28;20048;-45
2022/12/28 08:03:46;;;;;;;25.70;14.68;;;7.70;99.90;;;;;;5048141;28;20060;-45
2022/12/28 08:06:14;;;;;;;30.55;16.10;;;8.50;99.90;;;;;;5048192;28;20037;-44
2022/12/28 08:08:43;;;;;;;28.83;15.55;;;8.80;99.90;;;;;;5047764;28;20669;-45
2022/12/28 08:11:11;;;;;;;26.83;14.65;;;7.80;99.90;;;;;;5048020;28;20056;-45
2022/12/28 08:13:39;;;;;;;23.92;13.57;;;8.40;99.90;;;;;;5048256;28;20033;-44
2022/12/28 08:16:05;;;;;;;24.05;13.65;;;8.10;99.90;;;;;;5047526;28;20372;-47
2022/12/28 08:18:32;;;;;;;28.30;14.57;;;7.80;99.90;;;;;;5047674;28;20087;-45
2022/12/28 08:21:03;;;;;;;23.08;14.70;;;7.80;99.90;;;;;;5047936;28;20045;-45
2022/12/28 08:23:30;;;;;;;23.25;14.52;;;7.80;99.90;;;;;;5047153;28;20051;-45
2022/12/28 08:25:56;;;;;;;24.90;14.90;;;7.90;99.90;;;;;;5047122;28;20525;-45
2022/12/28 08:28:22;;;;;;;25.33;14.68;;;7.90;99.90;;;;;;5047454;28;20072;-45
2022/12/28 08:30:47;;;;;;;30.17;16.73;;;7.90;99.90;;;;;;5047089;28;20068;-45
2022/12/28 08:33:13;;;;;;;28.05;16.58;;;7.90;99.90;;;;;;5047392;28;20691;-45
2022/12/28 08:35:39;;;;;;;26.30;15.55;;;7.90;99.90;;;;;;5047594;28;20049;-48
2022/12/28 08:38:04;;;;;;;26.52;16.33;;;8.80;99.90;;;;;;5047026;28;20060;-44
2022/12/28 08:40:30;;;;;;;26.63;14.90;;;7.90;99.90;;;;;;5047261;28;20076;-45
2022/12/28 08:43:00;;;;;;;27.00;15.55;;;8.10;99.90;;;;;;5047152;28;20055;-45
2022/12/28 08:45:26;;;;;;;27.75;15.00;;;7.90;99.90;;;;;;5047120;28;20684;-45
2022/12/28 08:47:52;;;;;;;32.55;16.42;;;7.90;99.90;;;;;;5047456;28;20048;-47
2022/12/28 08:50:18;;;;;;;29.30;15.95;;;8.50;99.90;;;;;;5047572;28;20047;-46
2022/12/28 08:52:43;;;;;;;33.17;15.65;;;8.00;99.90;;;;;;5047385;28;20045;-46
2022/12/28 08:55:09;;;;;;;26.48;14.77;;;8.00;99.90;;;;;;5046594;28;20120;-45
2022/12/28 08:57:35;;;;;;;23.60;12.48;;;8.00;99.90;;;;;;5047282;28;20375;-45
2022/12/28 09:00:00;;;;;;;22.85;12.38;;;8.00;99.90;;;;;;5046884;28;20163;-45
2022/12/28 09:02:26;;;;;;;23.23;11.82;;;8.00;99.90;;;;;;5046698;28;20080;-45
2022/12/28 09:04:52;;;;;;;24.65;12.48;;;8.00;99.90;;;;;;5042332;28;20086;-45
2022/12/28 09:07:17;;;;;;;23.25;11.80;;;8.00;99.90;;;;;;5047210;28;20094;-47
2022/12/28 09:09:43;;;;;;;24.60;11.05;;;8.00;99.90;;;;;;5047280;28;20499;-45
2022/12/28 09:12:09;;;;;;;27.42;12.50;;;8.00;99.90;;;;;;5046034;28;20415;-46
2022/12/28 09:14:34;;;;;;;25.00;11.23;;;8.00;99.90;;;;;;5047249;28;20045;-45
2022/12/28 09:17:01;;;;;;;22.60;10.95;;;8.00;99.90;;;;;;5047094;28;20052;-45
2022/12/28 09:19:26;;;;;;;25.02;11.48;;;8.00;99.90;;;;;;5047127;28;20057;-45
2022/12/28 09:21:54;;;;;;;25.73;12.07;;;8.00;99.90;;;;;;5046839;28;20104;-45
2022/12/28 09:24:23;;;;;;;26.38;12.07;;;8.00;99.90;;;;;;5046040;28;20053;-45
2022/12/28 09:26:51;;;;;;;25.23;13.32;;;8.00;99.90;;;;;;5046851;28;20048;-46
2022/12/28 09:29:17;;;;;;;25.30;12.73;;;8.00;99.90;;;;;;5046470;28;20387;-45
2022/12/28 09:31:43;;;;;;;22.48;12.25;;;8.20;99.90;;;;;;5046755;28;20044;-46
2022/12/28 09:34:12;;;;;;;26.33;12.57;;;8.00;99.90;;;;;;5046464;28;20125;-48
2022/12/28 09:36:43;;;;;;;28.73;13.77;;;8.10;99.90;;;;;;5046080;28;20562;-46
2022/12/28 09:39:12;;;;;;;25.60;11.63;;;8.10;99.90;;;;;;5045953;28;20077;-45
2022/12/28 09:41:47;;;;;;;22.75;11.88;;;8.80;99.90;;;;;;5046233;28;20047;-45
2022/12/28 09:44:16;;;;;;;25.67;12.70;;;8.20;99.90;;;;;;5045726;28;20051;-45
2022/12/28 09:46:45;;;;;;;22.58;11.90;;;8.60;99.90;;;;;;5046126;28;20489;-44
2022/12/28 09:49:14;;;;;;;20.30;10.93;;;8.50;99.90;;;;;;5046261;28;20037;-46
2022/12/28 09:51:53;;;;;;;19.65;11.55;;;8.70;99.90;;;;;;5044588;28;20036;-45
2022/12/28 09:54:19;;;;;;;22.23;10.80;;;8.20;99.90;;;;;;5045696;28;20051;-45
2022/12/28 09:56:46;;;;;;;20.40;10.18;;;8.20;99.90;;;;;;5046354;28;20045;-45
2022/12/28 09:59:17;;;;;;;21.90;11.00;;;8.60;99.90;;;;;;5045846;28;20944;-45
2022/12/28 10:01:44;;;;;;;22.02;11.35;;;8.30;99.90;;;;;;5046211;28;20052;-44
2022/12/28 10:04:11;;;;;;;20.10;11.27;;;8.50;99.90;;;;;;5045993;28;20487;-46
2022/12/28 10:06:39;;;;;;;23.90;11.85;;;8.30;99.90;;;;;;5046421;28;20457;-44
2022/12/28 10:09:28;;;;;;;22.67;12.10;;;8.70;99.90;;;;;;5046091;28;20049;-44
2022/12/28 10:11:54;;;;;;;21.23;11.73;;;8.30;99.90;;;;;;5046478;28;20061;-46
2022/12/28 10:14:34;;;;;;;26.38;13.00;;;8.40;99.90;;;;;;5046293;28;20048;-45
2022/12/28 10:17:00;;;;;;;21.75;11.63;;;8.70;99.90;;;;;;5046090;28;20136;-46
2022/12/28 10:19:28;;;;;;;23.65;11.95;;;8.40;99.90;;;;;;5044876;28;20078;-46
2022/12/28 10:22:11;;;;;;;21.70;11.13;;;8.30;99.90;;;;;;5046818;28;20661;-45
2022/12/28 10:24:39;;;;;;;19.42;10.50;;;8.40;99.90;;;;;;5049897;28;20049;-44
2022/12/28 10:27:07;;;;;;;20.83;11.18;;;8.80;99.90;;;;;;5048955;28;20056;-44
2022/12/28 10:29:33;;;;;;;23.13;11.30;;;8.40;99.90;;;;;;5049452;28;20041;-45
2022/12/28 10:32:03;;;;;;;23.48;11.38;;;8.50;99.90;;;;;;5049221;28;20483;-45
2022/12/28 10:34:32;;;;;;;19.35;10.05;;;8.50;99.90;;;;;;5049694;28;20048;-46
2022/12/28 10:37:06;;;;;;;18.42;10.35;;;8.60;99.90;;;;;;5049737;28;20055;-46
2022/12/28 10:39:32;;;;;;;18.92;10.43;;;8.50;99.90;;;;;;5049339;28;20682;-45
2022/12/28 10:41:59;;;;;;;16.75;10.32;;;8.50;99.90;;;;;;5049145;28;20044;-48
2022/12/28 10:44:29;;;;;;;18.52;10.02;;;8.70;99.90;;;;;;5049705;28;20135;-50
2022/12/28 10:46:58;;;;;;;22.23;10.82;;;8.50;99.90;;;;;;5049779;28;20153;-47
2022/12/28 10:49:30;;;;;;;19.20;10.57;;;8.50;99.90;;;;;;5049944;28;20917;-47
2022/12/28 10:52:13;;;;;;;17.65;9.13;;;8.50;99.90;;;;;;5049762;28;20053;-47
2022/12/28 10:54:39;;;;;;;21.38;9.98;;;8.50;99.90;;;;;;5049072;28;20855;-49
2022/12/28 10:57:05;;;;;;;21.08;10.10;;;8.50;99.90;;;;;;5049560;28;20080;-49
2022/12/28 10:59:31;;;;;;;24.00;10.85;;;8.50;99.90;;;;;;5049308;28;20044;-47
2022/12/28 11:02:19;;;;;;;21.92;9.80;;;8.90;99.90;;;;;;5047882;28;20080;-48
2022/12/28 11:05:06;;;;;;;19.58;10.35;;;8.50;99.90;;;;;;5048842;28;20056;-52
2022/12/28 11:07:34;;;;;;;19.77;9.98;;;8.50;99.90;;;;;;5048482;28;20060;-47
2022/12/28 11:10:25;;;;;;;16.80;8.75;;;8.50;99.90;;;;;;5049155;28;20044;-48
2022/12/28 11:12:53;;;;;;;18.63;8.75;;;8.60;99.90;;;;;;5043823;28;20102;-49
2022/12/28 11:15:22;;;;;;;16.75;8.68;;;8.60;99.90;;;;;;5048928;28;20147;-48
2022/12/28 11:17:54;;;;;;;13.98;7.82;;;8.60;99.90;;;;;;5049367;28;20037;-49
2022/12/28 11:20:32;;;;;;;;;;;8.70;99.90;;;;;;5049459;28;20073;-48
2022/12/28 11:22:58;;;;;;;13.55;6.43;;;8.70;99.90;;;;;;5048801;28;20441;-48
2022/12/28 11:25:32;;;;;;;14.25;6.47;;;8.50;99.90;;;;;;5049036;28;20074;-49
2022/12/28 11:27:59;;;;;;;9.25;5.20;;;8.70;99.90;;;;;;5049352;28;20037;-49
2022/12/28 11:30:24;;;;;;;9.60;5.28;;;8.70;99.90;;;;;;5048444;28;21020;-48
2022/12/28 11:33:01;;;;;;;10.52;4.95;;;8.70;99.90;;;;;;5048668;28;20044;-50
2022/12/28 11:35:30;;;;;;;8.82;4.80;;;8.70;99.90;;;;;;5047766;28;20048;-48
2022/12/28 11:37:58;;;;;;;10.93;5.10;;;8.70;99.90;;;;;;5048856;28;20119;-48
2022/12/28 11:40:42;;;;;;;10.07;5.10;;;8.70;99.90;;;;;;5048413;28;20052;-49
2022/12/28 11:43:29;;;;;;;9.88;4.90;;;8.70;99.90;;;;;;5048444;28;20087;-49
2022/12/28 11:46:03;;;;;;;10.70;4.63;;;8.70;99.90;;;;;;5048440;28;20049;-49
2022/12/28 11:48:41;;;;;;;8.75;4.22;;;8.70;99.90;;;;;;5048141;28;20124;-50
2022/12/28 11:51:25;;;;;;;10.48;5.03;;;9.00;99.90;;;;;;5048417;28;20386;-48
2022/12/28 11:53:57;;;;;;;11.60;4.85;;;8.80;99.90;;;;;;5048094;28;20121;-47
2022/12/28 11:56:24;;;;;;;;;;;8.70;99.90;;;;;;5048834;28;20337;-48
2022/12/28 11:59:01;;;;;;;9.13;4.20;;;8.80;99.90;;;;;;5048568;28;19920;-49
2022/12/28 12:01:26;;;;;;;9.32;4.05;;;9.20;99.90;;;;;;5047500;28;20471;-48
2022/12/28 12:03:58;;;;;;;7.82;3.88;;;8.80;99.90;;;;;;5047929;28;20048;-48
2022/12/28 12:06:42;;;;;;;8.23;4.57;;;8.80;99.90;;;;;;5046506;28;20752;-49
2022/12/28 12:09:20;;;;;;;8.00;4.40;;;8.80;99.90;;;;;;5046516;28;20391;-50
2022/12/28 12:11:46;;;;;;;8.18;4.40;;;8.70;99.90;;;;;;5047931;28;20102;-50
2022/12/28 12:14:15;;;;;;;11.75;4.47;;;8.70;99.90;;;;;;5047513;28;20122;-49
2022/12/28 12:17:11;;;;;;;9.98;5.00;;;8.70;99.90;;;;;;5047161;28;20050;-48
2022/12/28 12:19:41;;;;;;;11.52;5.18;;;8.70;99.90;;;;;;5046808;28;20438;-49
2022/12/28 12:22:20;;;;;;;10.00;5.28;;;8.70;99.90;;;;;;5047280;28;20059;-48
2022/12/28 12:25:08;;;;;;;11.40;5.55;;;8.70;99.90;;;;;;5046489;28;20395;-50
2022/12/28 12:27:40;;;;;;;11.93;6.15;;;8.70;99.90;;;;;;5047465;28;20078;-50
2022/12/28 12:30:16;;;;;;;10.82;5.63;;;8.70;99.90;;;;;;5047374;28;20479;-51
2022/12/28 12:33:08;;;;;;;7.72;4.00;;;8.70;99.90;;;;;;5047466;28;20041;-51
2022/12/28 12:35:45;;;;;;;10.63;4.77;;;9.10;99.90;;;;;;5039585;28;20049;-48
2022/12/28 12:38:30;;;;;;;8.23;4.18;;;9.00;99.90;;;;;;5047901;28;20040;-51
2022/12/28 12:41:31;;;;;;;7.90;4.43;;;8.70;99.90;;;;;;5047963;28;20136;-49
2022/12/28 12:44:19;;;;;;;8.40;3.95;;;8.70;99.90;;;;;;5047945;28;20041;-48
2022/12/28 12:47:34;;;;;;;10.10;4.68;;;8.70;99.90;;;;;;5046790;28;20364;-48
2022/12/28 12:50:31;;;;;;;8.25;4.28;;;8.70;99.90;;;;;;5037840;28;20041;-50
2022/12/28 12:53:04;;;;;;;7.60;4.03;;;8.60;99.90;;;;;;5031841;28;20052;-47
2022/12/28 12:55:57;;;;;;;9.85;4.25;;;8.70;99.90;;;;;;5046968;28;20045;-48
2022/12/28 12:58:29;;;;;;;8.20;4.78;;;8.60;99.90;;;;;;5046985;28;20121;-48
2022/12/28 13:01:10;;;;;;;;;;;8.60;99.90;;;;;;5047582;28;20053;-50
2022/12/28 13:03:43;;;;;;;8.70;4.57;;;8.60;99.90;;;;;;5046537;28;19920;-49
2022/12/28 13:06:14;;;;;;;9.80;5.03;;;8.60;99.90;;;;;;5046788;28;20055;-50
2022/12/28 13:08:46;;;;;;;11.25;5.50;;;8.60;99.90;;;;;;5046320;28;20032;-48
2022/12/28 13:11:13;;;;;;;10.65;5.18;;;8.60;99.90;;;;;;5046908;28;20442;-49
2022/12/28 13:13:42;;;;;;;8.48;4.22;;;8.60;99.90;;;;;;5046454;28;20036;-49
2022/12/28 13:16:21;;;;;;;7.50;3.97;;;8.60;99.90;;;;;;5047101;28;20657;-52
2022/12/28 13:19:03;;;;;;;7.07;3.72;;;8.60;99.90;;;;;;5046866;28;20124;-49
2022/12/28 13:21:43;;;;;;;6.53;3.63;;;8.50;99.90;;;;;;5046246;28;20044;-51
2022/12/28 13:24:30;;;;;;;7.03;3.55;;;8.50;99.90;;;;;;5046587;28;20114;-51
2022/12/28 13:26:58;;;;;;;6.90;3.45;;;8.70;99.90;;;;;;5046954;28;20048;-49
2022/12/28 13:29:26;;;;;;;11.65;4.03;;;8.50;99.90;;;;;;5046709;28;20047;-48